createdAt,value
2022-11-04T00:02:30.705Z,47.65
2022-11-04T00:05:05.456Z,47.77
2022-11-04T00:08:04.166Z,47.81
2022-11-04T00:10:51.345Z,47.88
2022-11-04T00:13:23.488Z,47.90
2022-11-04T00:16:15.109Z,48.00
2022-11-04T00:19:52.919Z,48.09
2022-11-04T00:22:43.831Z,48.14
2022-11-04T00:25:34.312Z,48.21
2022-11-04T00:28:31.066Z,48.23
2022-11-04T00:31:19.107Z,48.30
2022-11-04T00:33:52.643Z,48.36
2022-11-04T00:36:28.395Z,48.47
2022-11-04T00:39:01.856Z,48.55
2022-11-04T00:41:34.960Z,48.56
2022-11-04T00:44:08.085Z,48.53
2022-11-04T00:46:40.064Z,48.47
2022-11-04T00:49:14.771Z,48.57
2022-11-04T00:51:46.698Z,48.54
2022-11-04T00:54:23.912Z,48.51
2022-11-04T00:56:55.785Z,48.66
2022-11-04T00:59:30.404Z,48.70
2022-11-04T01:02:03.765Z,48.69
2022-11-04T01:04:37.781Z,48.63
2022-11-04T01:07:10.289Z,48.77
2022-11-04T01:09:45.861Z,48.74
2022-11-04T01:12:19.957Z,48.68
2022-11-04T01:14:52.021Z,48.90
2022-11-04T01:17:24.788Z,48.81
2022-11-04T01:19:59.019Z,48.87
2022-11-04T01:22:31.821Z,48.79
2022-11-04T01:25:07.520Z,48.75
2022-11-04T01:27:39.426Z,48.79
2022-11-04T01:30:14.551Z,48.75
2022-11-04T01:32:48.059Z,48.81
2022-11-04T01:35:21.335Z,48.75
2022-11-04T01:37:59.545Z,48.80
2022-11-04T01:40:37.294Z,48.77
2022-11-04T01:43:16.426Z,48.75
2022-11-04T01:45:51.663Z,48.67
2022-11-04T01:48:27.773Z,48.65
2022-11-04T01:51:00.772Z,48.62
2022-11-04T01:53:39.153Z,48.64
2022-11-04T01:56:14.498Z,48.69
2022-11-04T01:58:53.576Z,48.65
2022-11-04T02:01:29.135Z,48.56
2022-11-04T02:04:17.710Z,48.59
2022-11-04T02:06:52.147Z,48.51
2022-11-04T02:09:27.665Z,48.67
2022-11-04T02:12:20.267Z,48.66
2022-11-04T02:14:55.472Z,48.51
2022-11-04T02:17:38.193Z,48.57
2022-11-04T02:20:25.396Z,48.59
2022-11-04T02:23:32.695Z,48.52
2022-11-04T02:26:28.237Z,48.52
2022-11-04T02:29:26.921Z,48.58
2022-11-04T02:32:07.892Z,48.68
2022-11-04T02:34:43.581Z,48.64
2022-11-04T02:37:29.951Z,48.68
2022-11-04T02:40:16.686Z,48.64
2022-11-04T02:42:54.605Z,48.71
2022-11-04T02:45:31.947Z,48.75
2022-11-04T02:48:12.044Z,48.51
2022-11-04T02:50:50.183Z,48.47
2022-11-04T02:53:27.430Z,48.57
2022-11-04T02:56:05.072Z,48.59
2022-11-04T02:58:40.345Z,48.61
2022-11-04T03:01:15.287Z,48.57
2022-11-04T03:03:51.348Z,48.45
2022-11-04T03:06:29.368Z,48.50
2022-11-04T03:09:04.243Z,48.40
2022-11-04T03:11:36.793Z,48.40
2022-11-04T03:14:11.634Z,48.51
2022-11-04T03:16:46.680Z,48.43
2022-11-04T03:19:22.034Z,48.39
2022-11-04T03:22:00.011Z,48.45
2022-11-04T03:24:34.920Z,48.46
2022-11-04T03:27:11.716Z,48.59
2022-11-04T03:29:53.955Z,48.57
2022-11-04T03:32:34.149Z,48.54
2022-11-04T03:35:08.618Z,48.54
2022-11-04T03:37:42.863Z,48.50
2022-11-04T03:40:17.953Z,48.54
2022-11-04T03:42:55.304Z,48.55
2022-11-04T03:45:28.547Z,48.62
2022-11-04T03:48:01.109Z,48.58
2022-11-04T03:50:40.768Z,48.51
2022-11-04T03:53:20.274Z,48.54
2022-11-04T03:56:09.214Z,48.52
2022-11-04T03:58:49.725Z,48.51
2022-11-04T04:01:31.645Z,48.50
2022-11-04T04:04:10.194Z,48.59
2022-11-04T04:06:45.137Z,48.45
2022-11-04T04:09:22.264Z,48.58
2022-11-04T04:12:00.489Z,48.55
2022-11-04T04:14:44.952Z,48.51
2022-11-04T04:17:21.528Z,48.52
2022-11-04T04:19:56.107Z,48.59
2022-11-04T04:22:30.560Z,48.61
2022-11-04T04:25:23.804Z,48.71
2022-11-04T04:27:56.580Z,48.76
2022-11-04T04:30:30.072Z,48.81
2022-11-04T04:33:06.555Z,48.84
2022-11-04T04:35:44.349Z,48.83
2022-11-04T04:38:39.892Z,48.88
2022-11-04T04:41:36.084Z,48.90
2022-11-04T04:44:33.724Z,48.88
2022-11-04T04:47:09.235Z,48.92
2022-11-04T04:49:52.330Z,48.89
2022-11-04T04:52:28.027Z,48.96
2022-11-04T04:55:02.258Z,49.06
2022-11-04T04:57:39.074Z,49.13
2022-11-04T05:00:16.711Z,49.19
2022-11-04T05:02:49.584Z,49.16
2022-11-04T05:05:22.081Z,49.18
2022-11-04T05:08:07.020Z,49.22
2022-11-04T05:10:40.854Z,49.18
2022-11-04T05:13:30.448Z,49.25
2022-11-04T05:16:10.272Z,49.24
2022-11-04T05:18:46.102Z,49.34
2022-11-04T05:21:23.224Z,49.48
2022-11-04T05:23:55.629Z,49.40
2022-11-04T05:26:30.857Z,49.48
2022-11-04T05:29:07.723Z,49.67
2022-11-04T05:31:40.467Z,49.66
2022-11-04T05:34:13.612Z,49.69
2022-11-04T05:36:46.985Z,49.76
2022-11-04T05:39:19.996Z,49.72
2022-11-04T05:41:54.560Z,49.81
2022-11-04T05:44:27.358Z,49.91
2022-11-04T05:47:01.335Z,49.95
2022-11-04T05:49:35.779Z,50.00
2022-11-04T05:52:11.432Z,50.00
2022-11-04T05:54:45.408Z,50.04
2022-11-04T05:57:19.392Z,50.04
2022-11-04T05:59:51.721Z,50.03
2022-11-04T06:02:25.041Z,50.11
2022-11-04T06:04:57.285Z,50.09
2022-11-04T06:07:29.905Z,50.09
2022-11-04T06:10:05.855Z,49.99
2022-11-04T06:12:37.968Z,50.02
2022-11-04T06:15:12.277Z,49.95
2022-11-04T06:17:45.643Z,49.96
2022-11-04T06:20:18.704Z,50.06
2022-11-04T06:22:53.295Z,50.00
2022-11-04T06:25:31.477Z,49.94
2022-11-04T06:28:05.264Z,49.85
2022-11-04T06:30:39.039Z,49.97
2022-11-04T06:33:14.972Z,50.04
2022-11-04T06:36:03.200Z,49.88
2022-11-04T06:38:39.438Z,49.75
2022-11-04T06:41:14.881Z,49.67
2022-11-04T06:43:48.585Z,49.65
2022-11-04T06:46:35.612Z,49.68
2022-11-04T06:49:11.723Z,49.56
2022-11-04T06:51:45.883Z,49.40
2022-11-04T06:54:18.207Z,49.45
2022-11-04T06:56:51.065Z,49.47
2022-11-04T06:59:25.970Z,49.41
2022-11-04T07:01:58.158Z,49.46
2022-11-04T07:04:31.687Z,49.29
2022-11-04T07:07:05.778Z,49.13
2022-11-04T07:09:42.940Z,49.01
2022-11-04T07:12:20.138Z,48.97
2022-11-04T07:14:56.775Z,48.85
2022-11-04T07:17:32.825Z,48.74
2022-11-04T07:20:17.420Z,48.69
2022-11-04T07:22:58.187Z,48.62
2022-11-04T07:26:08.432Z,48.42
2022-11-04T07:29:08.744Z,48.18
2022-11-04T07:31:43.794Z,47.88
2022-11-04T07:34:43.539Z,47.82
2022-11-04T07:37:42.431Z,47.54
2022-11-04T07:40:41.600Z,47.45
2022-11-04T07:43:38.265Z,47.27
2022-11-04T07:46:20.446Z,47.21
2022-11-04T07:49:22.620Z,47.20
2022-11-04T07:51:54.717Z,47.34
2022-11-04T07:54:29.036Z,47.42
2022-11-04T07:57:01.434Z,47.16
2022-11-04T07:59:34.227Z,47.18
2022-11-04T08:02:06.849Z,46.81
2022-11-04T08:04:41.728Z,46.63
2022-11-04T08:07:16.477Z,46.74
2022-11-04T08:09:52.118Z,46.62
2022-11-04T08:12:27.932Z,46.51
2022-11-04T08:15:00.685Z,46.40
2022-11-04T08:17:33.756Z,46.24
2022-11-04T08:20:09.860Z,46.22
2022-11-04T08:22:41.850Z,46.16
2022-11-04T08:25:14.396Z,46.05
2022-11-04T08:27:50.217Z,45.96
2022-11-04T08:30:24.211Z,46.18
2022-11-04T08:33:00.087Z,46.25
2022-11-04T08:35:39.747Z,46.08
2022-11-04T08:38:15.528Z,46.02
2022-11-04T08:40:48.537Z,45.91
2022-11-04T08:43:21.582Z,45.72
2022-11-04T08:45:55.012Z,45.74
2022-11-04T08:48:30.697Z,45.70
2022-11-04T08:51:04.277Z,45.46
2022-11-04T08:53:38.263Z,45.34
2022-11-04T08:56:17.330Z,45.24
2022-11-04T08:58:49.599Z,44.99
2022-11-04T09:01:24.112Z,44.90
2022-11-04T09:03:58.101Z,44.88
2022-11-04T09:06:34.283Z,44.94
2022-11-04T09:09:09.807Z,45.16
2022-11-04T09:11:45.104Z,45.27
2022-11-04T09:14:20.861Z,45.12
2022-11-04T09:16:55.768Z,45.21
2022-11-04T09:19:28.715Z,45.10
2022-11-04T09:22:01.354Z,44.98
2022-11-04T09:24:35.634Z,45.06
2022-11-04T09:27:11.660Z,44.96
2022-11-04T09:29:47.651Z,44.98
2022-11-04T09:33:08.093Z,44.80
2022-11-04T09:36:10.673Z,44.73
2022-11-04T09:42:29.026Z,44.69
2022-11-04T09:45:22.477Z,44.54
2022-11-04T09:54:35.001Z,44.60
2022-11-04T09:57:12.261Z,44.61
2022-11-04T10:00:22.836Z,44.68
2022-11-04T10:03:44.904Z,44.37
2022-11-04T10:06:35.542Z,44.05
2022-11-04T10:09:46.840Z,43.91
2022-11-04T10:16:09.014Z,43.87
2022-11-04T10:19:33.794Z,43.72
2022-11-04T10:22:54.856Z,43.59
2022-11-04T10:26:05.426Z,43.64
2022-11-04T10:29:11.446Z,43.67
2022-11-04T10:32:11.400Z,43.51
2022-11-04T10:35:20.846Z,43.53
2022-11-04T10:37:57.607Z,43.45
2022-11-04T10:50:30.561Z,42.63
2022-11-04T10:53:55.478Z,42.30
2022-11-04T10:57:06.454Z,42.26
2022-11-04T11:00:24.121Z,42.27
2022-11-04T11:03:22.845Z,42.06
2022-11-04T11:06:21.303Z,41.89
2022-11-04T11:08:57.272Z,41.63
2022-11-04T11:11:41.622Z,41.86
2022-11-04T11:14:32.185Z,41.92
2022-11-04T11:17:22.005Z,41.66
2022-11-04T11:19:59.181Z,41.58
2022-11-04T11:22:38.911Z,41.51
2022-11-04T11:25:24.347Z,41.46
2022-11-04T11:27:59.535Z,41.38
2022-11-04T11:30:34.845Z,41.33
2022-11-04T11:33:09.864Z,41.29
2022-11-04T11:35:46.977Z,41.18
2022-11-04T11:38:22.542Z,41.23
2022-11-04T11:41:23.785Z,41.21
2022-11-04T11:43:59.505Z,41.19
2022-11-04T11:46:34.597Z,41.20
2022-11-04T11:49:07.685Z,41.12
2022-11-04T11:51:41.651Z,41.13
2022-11-04T11:54:24.536Z,41.13
2022-11-04T11:57:22.358Z,41.05
2022-11-04T12:02:59.731Z,41.03
2022-11-04T12:11:51.842Z,41.10
2022-11-04T12:14:33.801Z,40.88
2022-11-04T12:17:14.143Z,41.07
2022-11-04T12:19:57.976Z,41.23
2022-11-04T12:22:39.212Z,40.80
2022-11-04T12:25:20.661Z,40.81
2022-11-04T12:28:00.265Z,40.66
2022-11-04T12:30:39.760Z,40.74
2022-11-04T12:33:21.780Z,40.72
2022-11-04T12:36:05.188Z,40.55
2022-11-04T12:38:51.783Z,40.32
2022-11-04T12:41:47.172Z,40.43
2022-11-04T12:44:29.611Z,40.32
2022-11-04T12:47:11.769Z,40.26
2022-11-04T12:50:11.298Z,40.31
2022-11-04T12:53:17.478Z,40.39
2022-11-04T12:55:58.660Z,40.44
2022-11-04T12:58:39.387Z,40.53
2022-11-04T13:01:16.319Z,40.68
2022-11-04T13:03:54.086Z,40.60
2022-11-04T13:06:31.075Z,40.62
2022-11-04T13:09:06.817Z,40.65
2022-11-04T13:11:46.803Z,40.89
2022-11-04T13:14:27.550Z,40.91
2022-11-04T13:17:03.044Z,40.91
2022-11-04T13:19:40.477Z,40.85
2022-11-04T13:22:15.277Z,40.91
2022-11-04T13:24:51.116Z,41.02
2022-11-04T13:27:34.916Z,41.06
2022-11-04T13:30:18.322Z,41.21
2022-11-04T13:32:53.985Z,41.27
2022-11-04T13:35:34.786Z,41.39
2022-11-04T13:38:12.891Z,41.42
2022-11-04T13:40:50.774Z,41.54
2022-11-04T13:43:40.366Z,41.53
2022-11-04T13:46:31.002Z,41.62
2022-11-04T13:49:06.026Z,41.78
2022-11-04T13:51:43.327Z,41.78
2022-11-04T13:54:31.773Z,41.69
2022-11-04T13:57:16.014Z,41.59
2022-11-04T14:00:20.805Z,41.85
2022-11-04T14:02:54.408Z,41.96
2022-11-04T14:05:48.749Z,41.93
2022-11-04T14:08:24.787Z,42.01
2022-11-04T14:11:09.242Z,42.06
2022-11-04T14:14:06.646Z,42.19
2022-11-04T14:16:46.617Z,42.34
2022-11-04T14:19:58.266Z,42.39
2022-11-04T14:22:43.096Z,42.25
2022-11-04T14:25:26.991Z,42.36
2022-11-04T14:28:01.789Z,42.35
2022-11-04T14:30:48.438Z,42.37
2022-11-04T14:33:53.724Z,42.42
2022-11-04T14:36:42.764Z,42.43
2022-11-04T14:39:35.001Z,42.53
2022-11-04T14:42:10.253Z,42.62
2022-11-04T14:44:49.769Z,42.42
2022-11-04T14:47:26.793Z,42.44
2022-11-04T14:50:08.789Z,42.54
2022-11-04T14:52:51.436Z,42.36
2022-11-04T14:55:25.140Z,42.41
2022-11-04T14:57:59.091Z,42.49
2022-11-04T15:00:34.980Z,42.63
2022-11-04T15:04:04.644Z,42.47
2022-11-04T15:06:13.635Z,42.43
2022-11-04T15:08:49.491Z,42.57
2022-11-04T15:11:40.680Z,42.66
2022-11-04T15:14:22.041Z,42.77
2022-11-04T15:16:58.511Z,42.69
2022-11-04T15:19:37.986Z,42.69
2022-11-04T15:22:16.044Z,42.65
2022-11-04T15:24:50.659Z,42.76
2022-11-04T15:27:29.522Z,42.64
2022-11-04T15:30:04.151Z,42.74
2022-11-04T15:32:37.297Z,42.72
2022-11-04T15:35:16.676Z,42.65
2022-11-04T15:37:51.482Z,42.65
2022-11-04T15:40:25.125Z,42.88
2022-11-04T15:42:57.877Z,42.84
2022-11-04T15:45:33.241Z,43.00
2022-11-04T15:48:34.634Z,42.96
2022-11-04T15:51:24.850Z,43.03
2022-11-04T15:54:00.886Z,43.20
2022-11-04T15:56:36.856Z,43.28
2022-11-04T15:59:14.168Z,43.28
2022-11-04T16:01:52.205Z,43.55
2022-11-04T16:04:27.811Z,43.55
2022-11-04T16:07:25.108Z,43.62
2022-11-04T16:09:58.113Z,43.87
2022-11-04T16:12:39.545Z,43.88
2022-11-04T16:15:37.416Z,43.98
2022-11-04T16:18:23.726Z,44.25
2022-11-04T16:20:57.597Z,44.22
2022-11-04T16:23:32.837Z,44.22
2022-11-04T16:26:08.027Z,44.39
2022-11-04T16:28:41.860Z,44.51
2022-11-04T16:31:31.131Z,44.51
2022-11-04T16:34:05.605Z,44.56
2022-11-04T16:36:37.902Z,44.70
2022-11-04T16:39:12.698Z,44.80
2022-11-04T16:41:46.546Z,44.94
2022-11-04T16:44:23.657Z,44.97
2022-11-04T16:46:59.655Z,45.11
2022-11-04T16:49:33.012Z,45.14
2022-11-04T16:52:07.400Z,45.23
2022-11-04T16:54:39.309Z,45.22
2022-11-04T16:57:14.543Z,45.06
2022-11-04T16:59:52.962Z,45.19
2022-11-04T17:02:30.860Z,45.23
2022-11-04T17:05:08.038Z,45.32
2022-11-04T17:07:54.519Z,45.47
2022-11-04T17:10:33.404Z,45.64
2022-11-04T17:13:07.144Z,45.73
2022-11-04T17:15:41.146Z,45.95
2022-11-04T17:18:17.233Z,46.01
2022-11-04T17:20:52.777Z,46.18
2022-11-04T17:23:25.673Z,46.24
2022-11-04T17:25:58.704Z,46.26
2022-11-04T17:28:33.623Z,46.33
2022-11-04T17:31:14.517Z,46.50
2022-11-04T17:33:47.713Z,46.57
2022-11-04T17:36:22.618Z,46.72
2022-11-04T17:38:54.664Z,46.87
2022-11-04T17:41:46.655Z,46.89
2022-11-04T17:44:19.223Z,46.86
2022-11-04T17:46:52.282Z,46.86
2022-11-04T17:49:25.897Z,46.99
2022-11-04T17:52:01.238Z,47.06
2022-11-04T17:54:34.603Z,47.09
2022-11-04T17:57:08.879Z,47.13
2022-11-04T17:59:41.083Z,47.25
2022-11-04T18:02:13.583Z,47.38
2022-11-04T18:04:48.991Z,47.52
2022-11-04T18:07:21.429Z,47.67
2022-11-04T18:09:55.690Z,47.82
2022-11-04T18:12:41.673Z,47.99
2022-11-04T18:15:18.952Z,48.16
2022-11-04T18:17:53.531Z,48.24
2022-11-04T18:20:25.609Z,48.33
2022-11-04T18:23:02.037Z,48.31
2022-11-04T18:25:35.089Z,48.41
2022-11-04T18:28:08.186Z,48.65
2022-11-04T18:30:41.833Z,48.76
2022-11-04T18:33:14.201Z,48.90
2022-11-04T18:35:47.097Z,49.05
2022-11-04T18:38:21.863Z,49.18
2022-11-04T18:40:56.891Z,49.32
2022-11-04T18:43:31.835Z,49.46
2022-11-04T18:46:10.187Z,49.58
2022-11-04T18:48:43.331Z,49.80
2022-11-04T18:51:17.349Z,49.92
2022-11-04T18:53:51.330Z,50.02
2022-11-04T18:56:25.314Z,50.18
2022-11-04T18:58:57.846Z,50.35
2022-11-04T19:01:33.532Z,50.29
2022-11-04T19:04:08.384Z,50.33
2022-11-04T19:06:46.332Z,50.48
2022-11-04T19:12:32.241Z,50.82
2022-11-04T19:15:06.535Z,51.04
2022-11-04T19:17:39.883Z,51.19
2022-11-04T19:20:14.125Z,51.32
2022-11-04T19:22:47.574Z,51.51
2022-11-04T19:25:21.509Z,51.58
2022-11-04T19:28:26.445Z,51.74
2022-11-04T19:31:05.625Z,51.97
2022-11-04T19:33:38.380Z,51.99
2022-11-04T19:36:12.509Z,52.07
2022-11-04T19:38:45.124Z,52.20
2022-11-04T19:41:38.242Z,52.45
2022-11-04T19:44:12.940Z,52.63
2022-11-04T19:46:49.303Z,52.78
2022-11-04T19:49:22.268Z,52.91
2022-11-04T19:51:56.081Z,53.11
2022-11-04T19:54:32.806Z,53.16
2022-11-04T19:57:05.443Z,53.34
2022-11-04T19:59:44.361Z,53.34
2022-11-04T20:02:21.942Z,53.32
2022-11-04T20:04:56.518Z,53.42
2022-11-04T20:07:29.024Z,53.60
2022-11-04T20:10:02.730Z,53.71
2022-11-04T20:12:56.097Z,53.68
2022-11-04T20:15:31.337Z,53.86
2022-11-04T20:18:05.403Z,53.88
2022-11-04T20:20:38.935Z,53.88
2022-11-04T20:23:11.410Z,53.98
2022-11-04T20:25:44.092Z,54.10
2022-11-04T20:28:19.429Z,54.29
2022-11-04T20:30:52.195Z,54.29
2022-11-04T20:33:26.278Z,54.33
2022-11-04T20:36:01.046Z,54.34
2022-11-04T20:38:34.761Z,54.38
2022-11-04T20:41:16.775Z,54.58
2022-11-04T20:43:51.588Z,54.75
2022-11-04T20:46:29.622Z,54.83
2022-11-04T20:49:05.787Z,54.82
2022-11-04T20:51:42.236Z,54.81
2022-11-04T20:54:15.672Z,54.94
2022-11-04T20:56:48.732Z,55.00
2022-11-04T20:59:22.598Z,55.03
2022-11-04T21:01:57.594Z,55.03
2022-11-04T21:04:35.950Z,55.05
2022-11-04T21:07:10.103Z,55.13
2022-11-04T21:09:45.210Z,55.22
2022-11-04T21:12:17.772Z,55.32
2022-11-04T21:14:50.312Z,55.43
2022-11-04T21:17:24.171Z,55.57
2022-11-04T21:19:59.353Z,55.47
2022-11-04T21:22:31.969Z,55.56
2022-11-04T21:25:05.197Z,55.78
2022-11-04T21:27:42.068Z,55.81
2022-11-04T21:30:16.792Z,55.98
2022-11-04T21:32:49.228Z,56.02
2022-11-04T21:35:21.950Z,56.04
2022-11-04T21:37:56.741Z,55.91
2022-11-04T21:40:28.814Z,56.01
2022-11-04T21:43:04.655Z,55.98
2022-11-04T21:45:39.055Z,56.09
2022-11-04T21:48:11.932Z,56.10
2022-11-04T21:50:47.545Z,56.19
2022-11-04T21:53:20.230Z,56.18
2022-11-04T21:55:53.940Z,56.15
2022-11-04T21:58:27.738Z,56.16
2022-11-04T22:01:01.744Z,56.16
2022-11-04T22:03:35.649Z,56.13
2022-11-04T22:06:10.245Z,56.17
2022-11-04T22:08:46.387Z,56.43
2022-11-04T22:11:20.280Z,56.96
2022-11-04T22:13:57.237Z,57.03
2022-11-04T22:16:31.027Z,57.06
2022-11-04T22:19:06.667Z,57.03
2022-11-04T22:21:41.218Z,57.02
2022-11-04T22:24:18.917Z,57.09
2022-11-04T22:26:53.459Z,57.09
2022-11-04T22:29:27.154Z,57.01
2022-11-04T22:32:00.135Z,57.10
2022-11-04T22:34:33.393Z,57.13
2022-11-04T22:37:10.297Z,57.18
2022-11-04T22:39:43.662Z,57.31
2022-11-04T22:42:15.537Z,57.34
2022-11-04T22:44:47.413Z,57.15
2022-11-04T22:47:19.893Z,57.27
2022-11-04T22:49:56.629Z,56.90
2022-11-04T22:52:29.252Z,57.13
2022-11-04T22:55:08.543Z,57.40
2022-11-04T22:57:44.257Z,57.36
2022-11-04T23:00:18.116Z,57.25
2022-11-04T23:02:55.252Z,57.36
2022-11-04T23:05:30.772Z,57.41
2022-11-04T23:08:03.380Z,57.41
2022-11-04T23:10:54.426Z,57.45
2022-11-04T23:13:45.785Z,57.43
2022-11-04T23:16:35.454Z,57.38
2022-11-04T23:19:07.679Z,57.32
2022-11-04T23:21:58.232Z,57.45
2022-11-04T23:24:49.266Z,57.60
2022-11-04T23:27:37.166Z,57.63
2022-11-04T23:30:25.912Z,57.67
2022-11-04T23:32:59.866Z,57.69
2022-11-04T23:35:55.142Z,57.23
2022-11-04T23:38:29.702Z,57.04
2022-11-04T23:41:37.732Z,57.41
2022-11-04T23:44:32.677Z,57.79
2022-11-04T23:47:24.736Z,58.00
2022-11-04T23:50:16.607Z,57.95
2022-11-04T23:53:07.399Z,58.00
2022-11-04T23:55:57.536Z,57.88
2022-11-04T23:58:49.403Z,57.62
